Time;durP1;ratioP1;P1;durP2;ratioP2;P2;SDS_P1;SDS_P2;PMS_P1;PMS_P2;Temp;Humidity;BMP_temperature;BMP_pressure;BME280_temperature;BME280_humidity;BME280_pressure;Samples;Min_cycle;Max_cycle;Signal;HPM_P1;HPM_P2
2022/01/22 00:00:57;;;;;;;11.43;5.13;;;;;;;6.59;70.64;102206.22;5110229;27;20212;-63
2022/01/22 00:03:25;;;;;;;12.33;4.83;;;;;;;6.65;70.80;102203.25;5108686;28;20212;-64
2022/01/22 00:05:55;;;;;;;11.17;4.97;;;;;;;6.90;69.92;102198.38;5111116;28;20573;-63
2022/01/22 00:08:23;;;;;;;11.60;4.13;;;;;;;6.92;69.95;102193.88;5102148;28;20229;-63
2022/01/22 00:10:52;;;;;;;19.23;5.00;;;;;;;7.00;69.63;102190.81;5104360;27;20335;-62
2022/01/22 00:16:05;;;;;;;10.43;4.60;;;;;;;7.12;68.91;102192.78;5109053;28;20212;-63
2022/01/22 00:18:33;;;;;;;13.07;4.37;;;;;;;7.25;68.37;102183.25;5108329;28;20230;-63
2022/01/22 00:21:03;;;;;;;11.37;4.30;;;;;;;7.17;68.54;102180.19;5096887;28;20295;-62
2022/01/22 00:23:31;;;;;;;10.47;4.40;;;;;;;7.02;69.30;102179.25;5104669;28;20258;-64
2022/01/22 00:25:59;;;;;;;11.67;4.93;;;;;;;7.02;69.29;102173.97;5108331;28;20697;-63
2022/01/22 00:28:27;;;;;;;13.77;4.20;;;;;;;6.85;70.06;102175.81;5110415;27;20205;-63
2022/01/22 00:30:55;;;;;;;11.93;5.00;;;;;;;6.83;70.40;102159.22;5111779;28;20584;-61
2022/01/22 00:33:22;;;;;;;10.60;4.53;;;;;;;6.90;69.82;102164.06;5101743;28;20261;-61
2022/01/22 00:35:50;;;;;;;9.40;4.43;;;;;;;7.03;69.16;102154.56;5102693;28;20657;-63
2022/01/22 00:38:19;;;;;;;8.57;4.07;;;;;;;7.04;69.10;102164.16;5107444;28;20252;-62
2022/01/22 00:40:51;;;;;;;11.50;4.67;;;;;;;6.92;69.61;102162.22;5106739;28;20575;-63
2022/01/22 00:43:20;;;;;;;9.70;4.63;;;;;;;6.86;69.90;102172.25;5108189;28;20985;-63
2022/01/22 00:45:47;;;;;;;13.80;4.30;;;;;;;6.93;69.47;102168.34;5103230;28;20222;-64
2022/01/22 00:48:16;;;;;;;9.77;4.13;;;;;;;6.92;69.62;102172.75;5103064;28;20245;-63
2022/01/22 00:50:44;;;;;;;8.80;4.03;;;;;;;6.96;69.46;102179.56;5108091;28;20647;-63
2022/01/22 00:53:12;;;;;;;7.47;4.17;;;;;;;6.97;69.34;102176.00;5108243;28;20265;-62
2022/01/22 00:55:41;;;;;;;11.17;4.77;;;;;;;6.82;69.55;102171.56;5111099;28;20296;-63
2022/01/22 00:58:09;;;;;;;9.80;4.60;;;;;;;6.62;70.80;102169.97;5105738;28;20304;-63
2022/01/22 01:00:37;;;;;;;10.63;4.20;;;;;;;6.87;69.80;102172.16;5107303;28;20688;-63
2022/01/22 01:03:05;;;;;;;7.60;4.20;;;;;;;6.66;70.36;102166.25;5105514;28;20654;-63
2022/01/22 01:05:34;;;;;;;9.40;4.47;;;;;;;6.75;70.19;102159.63;5109372;28;20207;-62
2022/01/22 01:08:02;;;;;;;8.87;4.17;;;;;;;6.92;69.63;102166.63;5114763;27;20311;-62
2022/01/22 01:10:30;;;;;;;9.93;4.67;;;;;;;6.76;70.57;102162.19;5108593;28;20215;-62
2022/01/22 01:13:00;;;;;;;9.97;4.47;;;;;;;6.75;70.26;102157.00;5107900;28;20299;-62
2022/01/22 01:15:39;;;;;;;9.63;3.80;;;;;;;6.93;69.70;102163.91;5106817;28;20250;-62
2022/01/22 01:34:51;;;;;;;9.90;4.83;;;;;;;6.43;71.75;102178.00;5069534;28;20308;-63
2022/01/22 01:37:22;;;;;;;12.17;5.07;;;;;;;6.83;70.68;102172.41;5099496;28;20293;-63
2022/01/22 01:39:54;;;;;;;12.57;4.87;;;;;;;6.70;70.92;102172.19;5108335;28;20396;-63
2022/01/22 01:42:30;;;;;;;11.03;4.60;;;;;;;6.50;71.73;102181.19;5105880;28;20231;-63
2022/01/22 01:45:01;;;;;;;10.90;4.70;;;;;;;6.49;71.87;102183.91;5108969;28;20209;-63
2022/01/22 01:47:28;;;;;;;10.50;4.93;;;;;;;6.45;72.17;102171.81;5105006;28;20220;-62
2022/01/22 01:49:57;;;;;;;10.33;4.53;;;;;;;6.33;72.52;102189.94;5108170;28;20218;-62
2022/01/22 01:52:34;;;;;;;8.23;4.77;;;;;;;6.43;72.21;102180.63;5105405;28;20210;-63
2022/01/22 01:55:08;;;;;;;8.77;4.27;;;;;;;6.39;72.54;102179.09;5102831;28;20724;-62
2022/01/22 01:57:39;;;;;;;9.47;5.23;;;;;;;6.34;72.91;102181.09;5109355;28;20202;-61
2022/01/22 02:00:17;;;;;;;14.10;6.33;;;;;;;6.47;72.63;102180.47;5105948;28;20240;-61
2022/01/22 02:02:47;;;;;;;10.27;4.97;;;;;;;6.43;72.60;102174.50;5108190;27;20211;-61
2022/01/22 02:05:15;;;;;;;11.37;5.20;;;;;;;6.67;71.56;102167.97;5105944;27;20260;-60
2022/01/22 02:07:45;;;;;;;8.37;4.60;;;;;;;6.90;70.64;102174.63;5104667;28;20302;-62
2022/01/22 02:10:20;;;;;;;8.50;4.70;;;;;;;6.98;70.23;102177.69;5109612;28;20495;-61
2022/01/22 02:23:54;;;;;;;9.23;4.80;;;;;;;6.66;70.92;102170.69;5100248;28;20215;-61
2022/01/22 02:26:22;;;;;;;13.43;5.87;;;;;;;6.90;70.17;102174.63;5105840;28;20331;-61
2022/01/22 02:28:51;;;;;;;11.07;4.67;;;;;;;6.99;69.74;102170.63;5105294;28;20645;-61
2022/01/22 02:31:28;;;;;;;10.83;5.03;;;;;;;7.02;69.37;102173.97;5104164;28;20204;-61
2022/01/22 02:34:04;;;;;;;10.47;5.20;;;;;;;7.01;69.33;102172.25;5106148;28;20692;-61
2022/01/22 02:36:39;;;;;;;9.90;4.90;;;;;;;6.69;69.77;102167.84;5106789;28;20262;-61
2022/01/22 02:39:12;;;;;;;9.00;4.83;;;;;;;7.03;69.02;102173.03;5104370;28;20207;-60
2022/01/22 02:41:43;;;;;;;7.60;4.80;;;;;;;7.16;68.56;102170.56;5097106;28;20210;-62
2022/01/22 02:44:15;;;;;;;10.83;4.60;;;;;;;7.14;68.89;102173.28;5107280;28;20203;-61
2022/01/22 02:46:43;;;;;;;13.33;4.63;;;;;;;7.19;68.41;102170.41;5107440;28;20208;-62
2022/01/22 02:49:11;;;;;;;12.43;5.27;;;;;;;7.08;68.53;102173.63;5104651;28;20219;-62
2022/01/22 02:51:40;;;;;;;8.10;4.30;;;;;;;6.83;68.92;102168.00;5105430;28;20211;-62
2022/01/22 02:54:07;;;;;;;7.77;4.57;;;;;;;6.84;69.45;102174.13;5106027;28;20211;-60
2022/01/22 02:56:35;;;;;;;10.80;4.40;;;;;;;6.76;68.90;102172.75;5109495;28;20210;-61
2022/01/22 02:59:03;;;;;;;9.90;4.80;;;;;;;7.06;68.22;102164.94;5107816;28;20215;-62
2022/01/22 03:01:30;;;;;;;10.60;4.57;;;;;;;7.09;68.25;102166.56;5113005;28;20297;-61
2022/01/22 03:03:58;;;;;;;9.17;4.53;;;;;;;6.79;69.14;102161.16;5105232;27;20212;-62
2022/01/22 03:06:26;;;;;;;8.23;4.13;;;;;;;6.57;69.43;102152.72;5105685;28;20255;-62
2022/01/22 03:08:56;;;;;;;7.67;4.57;;;;;;;6.39;69.95;102152.75;5110073;28;20630;-63
2022/01/22 03:11:29;;;;;;;10.93;4.00;;;;;;;6.47;69.80;102154.13;5096130;28;20770;-62
2022/01/22 03:14:40;;;;;;;8.63;3.93;;;;;;;6.46;70.20;102153.28;5106717;28;20243;-62
2022/01/22 03:17:23;;;;;;;10.17;4.43;;;;;;;6.49;69.74;102153.13;5110738;28;20620;-63
2022/01/22 03:20:05;;;;;;;7.63;4.20;;;;;;;6.60;69.54;102155.16;5110844;28;20298;-63
2022/01/22 03:22:54;;;;;;;9.10;4.63;;;;;;;6.80;68.75;102158.44;5104608;28;20359;-62
2022/01/22 03:28:09;;;;;;;8.33;3.97;;;;;;;6.69;69.20;102158.16;5108191;28;20228;-63
2022/01/22 03:30:36;;;;;;;10.23;4.10;;;;;;;6.64;68.71;102154.09;5107173;28;20211;-63
2022/01/22 03:33:04;;;;;;;9.23;3.67;;;;;;;6.61;69.09;102157.72;5109818;28;20220;-63
2022/01/22 03:35:35;;;;;;;8.97;3.80;;;;;;;6.58;69.10;102152.63;5104951;28;20246;-63
2022/01/22 03:38:04;;;;;;;8.10;3.37;;;;;;;6.57;68.73;102160.63;5110505;28;20286;-63
2022/01/22 03:40:33;;;;;;;7.93;4.00;;;;;;;6.61;68.38;102160.38;5108855;28;20216;-62
2022/01/22 03:43:01;;;;;;;17.20;4.10;;;;;;;6.54;69.17;102147.59;5099048;28;20261;-63
2022/01/22 03:45:29;;;;;;;9.57;3.07;;;;;;;6.41;68.87;102160.59;5109022;28;20210;-63
2022/01/22 03:47:56;;;;;;;7.53;3.30;;;;;;;6.47;68.98;102160.25;5110371;28;20298;-63
2022/01/22 03:50:24;;;;;;;9.07;3.43;;;;;;;6.40;68.93;102166.78;5110063;28;20301;-62
2022/01/22 03:52:52;;;;;;;6.33;2.87;;;;;;;6.48;68.98;102167.22;5104009;28;20223;-63
2022/01/22 03:55:32;;;;;;;9.33;3.97;;;;;;;6.51;68.83;102171.50;5114439;27;20202;-62
2022/01/22 03:58:02;;;;;;;6.40;3.10;;;;;;;6.57;68.78;102165.91;5112073;27;20910;-62
2022/01/22 04:00:30;;;;;;;7.10;2.93;;;;;;;6.67;68.38;102172.38;5105574;28;20212;-62
2022/01/22 04:06:05;;;;;;;8.60;3.57;;;;;;;6.71;68.20;102164.22;5092534;28;20648;-62
2022/01/22 04:08:33;;;;;;;8.73;3.67;;;;;;;6.90;67.77;102179.03;5110085;28;20218;-62
2022/01/22 04:11:02;;;;;;;6.60;3.53;;;;;;;7.03;67.04;102175.69;5108526;28;20328;-61
2022/01/22 04:13:34;;;;;;;7.93;3.87;;;;;;;6.73;67.54;102164.13;5110036;28;20235;-62
2022/01/22 04:16:02;;;;;;;6.47;3.50;;;;;;;6.77;67.33;102161.25;5109003;27;20302;-62
2022/01/22 04:26:55;;;;;;;9.47;3.87;;;;;;;6.96;67.13;102163.72;5077600;28;20230;-61
2022/01/22 04:29:25;;;;;;;8.30;3.40;;;;;;;6.85;67.46;102158.22;5110131;28;20306;-62
2022/01/22 04:31:54;;;;;;;9.83;4.17;;;;;;;7.05;66.79;102147.41;5108144;28;20305;-62
2022/01/22 04:34:22;;;;;;;7.90;3.57;;;;;;;6.96;66.70;102147.91;5103202;28;20236;-61
2022/01/22 04:36:49;;;;;;;11.43;3.93;;;;;;;6.93;66.66;102145.47;5108506;28;20216;-61
2022/01/22 04:39:19;;;;;;;10.93;3.27;;;;;;;6.90;67.06;102140.34;5110619;28;20294;-62
2022/01/22 04:41:46;;;;;;;10.43;3.70;;;;;;;6.84;67.23;102145.97;5109198;28;20255;-62
2022/01/22 04:44:14;;;;;;;11.97;4.20;;;;;;;6.96;67.32;102145.28;5106793;28;20294;-62
2022/01/22 04:46:56;;;;;;;7.23;3.30;;;;;;;7.11;66.73;102152.34;5103259;28;20213;-62
2022/01/22 04:52:38;;;;;;;11.37;3.60;;;;;;;7.06;66.78;102162.28;5069102;27;20212;-63
2022/01/22 04:55:07;;;;;;;11.70;4.03;;;;;;;6.95;67.50;102162.03;5104321;28;20214;-62
2022/01/22 04:57:37;;;;;;;8.93;3.80;;;;;;;7.02;67.37;102160.78;5111753;28;20290;-62
2022/01/22 05:00:08;;;;;;;11.93;4.43;;;;;;;7.03;67.41;102154.56;5108579;28;20203;-62
2022/01/22 05:02:37;;;;;;;7.23;3.60;;;;;;;6.86;68.19;102153.78;5105219;28;20624;-62
2022/01/22 05:05:06;;;;;;;7.03;3.50;;;;;;;6.83;68.43;102156.59;5108371;28;20208;-62
2022/01/22 05:07:34;;;;;;;10.60;3.93;;;;;;;6.74;68.33;102147.38;5108184;28;20540;-62
2022/01/22 05:10:02;;;;;;;8.13;3.93;;;;;;;6.84;68.36;102153.03;5108150;28;20224;-62
2022/01/22 05:12:30;;;;;;;7.43;3.27;;;;;;;6.93;67.64;102157.78;5109086;28;20246;-62
2022/01/22 05:14:57;;;;;;;7.83;3.70;;;;;;;6.72;68.01;102159.78;5107272;28;20245;-62
2022/01/22 05:17:25;;;;;;;8.27;4.10;;;;;;;6.94;67.44;102157.72;5107003;28;20298;-62
2022/01/22 05:20:00;;;;;;;9.57;4.97;;;;;;;6.94;67.49;102159.50;5106951;28;20580;-62
2022/01/22 05:22:46;;;;;;;10.77;4.67;;;;;;;6.81;68.12;102164.56;5106101;28;20294;-62
2022/01/22 05:25:19;;;;;;;11.60;3.80;;;;;;;6.98;67.75;102156.59;5107150;28;20269;-62
2022/01/22 05:28:03;;;;;;;11.00;4.00;;;;;;;6.82;68.10;102161.00;5108739;28;20771;-62
2022/01/22 05:30:52;;;;;;;6.27;3.60;;;;;;;7.13;67.32;102171.56;5105176;28;20217;-62
2022/01/22 05:38:58;;;;;;;8.03;3.97;;;;;;;7.02;67.61;102173.13;5105363;28;20214;-62
2022/01/22 05:41:26;;;;;;;8.00;4.30;;;;;;;7.18;67.03;102169.53;5107992;28;20709;-62
2022/01/22 05:43:53;;;;;;;10.73;4.23;;;;;;;7.11;67.15;102162.06;5108120;28;20720;-62
2022/01/22 05:46:21;;;;;;;10.37;3.57;;;;;;;6.95;67.54;102171.75;5105761;28;20229;-62
2022/01/22 05:48:49;;;;;;;9.00;3.93;;;;;;;6.97;67.89;102176.00;5110796;27;20254;-62
2022/01/22 05:51:18;;;;;;;11.27;4.80;;;;;;;7.18;67.42;102171.34;5115327;27;20208;-62
2022/01/22 05:54:02;;;;;;;7.93;4.10;;;;;;;7.26;67.05;102182.31;5107529;27;20219;-60
2022/01/22 05:59:39;;;;;;;9.67;4.07;;;;;;;6.90;68.08;102177.25;5065879;28;20294;-62
2022/01/22 06:02:09;;;;;;;7.73;4.10;;;;;;;7.09;68.00;102177.97;5109216;28;20302;-62
2022/01/22 06:04:38;;;;;;;8.33;3.77;;;;;;;6.70;68.69;102178.31;5100133;28;20809;-62
2022/01/22 06:07:07;;;;;;;9.70;4.10;;;;;;;6.62;69.67;102180.53;5103869;28;20215;-62
2022/01/22 06:09:38;;;;;;;6.37;3.67;;;;;;;6.43;70.42;102180.63;5106240;28;20238;-62
2022/01/22 06:12:16;;;;;;;7.93;3.90;;;;;;;6.53;69.93;102182.78;5107153;28;20666;-64
2022/01/22 06:14:44;;;;;;;8.20;3.30;;;;;;;6.65;69.55;102180.38;5107382;28;20294;-64
2022/01/22 06:17:12;;;;;;;9.97;3.83;;;;;;;6.65;69.26;102184.78;5105262;28;20306;-64
2022/01/22 06:19:39;;;;;;;7.80;3.43;;;;;;;6.78;69.00;102180.53;5101544;28;20211;-62
2022/01/22 06:22:09;;;;;;;7.53;3.33;;;;;;;6.72;69.35;102187.00;5103436;28;20243;-62
2022/01/22 06:24:36;;;;;;;5.13;3.10;;;;;;;6.59;69.88;102193.03;5105542;28;20640;-61
2022/01/22 06:27:05;;;;;;;8.80;3.20;;;;;;;6.73;69.52;102198.41;5105194;28;20226;-62
2022/01/22 06:29:33;;;;;;;8.33;3.13;;;;;;;6.87;69.11;102198.50;5105468;28;20236;-62
2022/01/22 06:32:00;;;;;;;9.60;3.67;;;;;;;6.89;68.91;102198.44;5097214;28;20217;-64
2022/01/22 06:34:28;;;;;;;6.70;3.00;;;;;;;6.98;68.82;102200.59;5103504;28;20211;-63
2022/01/22 06:36:56;;;;;;;6.83;3.40;;;;;;;6.96;68.56;102192.75;5097272;28;20209;-63
2022/01/22 06:39:26;;;;;;;9.20;2.87;;;;;;;6.82;68.83;102187.38;5103296;28;20237;-63
2022/01/22 06:41:53;;;;;;;6.57;3.13;;;;;;;6.84;69.45;102185.53;5095635;28;20228;-63
2022/01/22 06:44:25;;;;;;;5.77;3.20;;;;;;;6.96;68.64;102189.25;5104874;28;20210;-62
2022/01/22 06:46:55;;;;;;;7.87;3.00;;;;;;;6.80;69.20;102191.88;5107797;28;20579;-61
2022/01/22 06:49:23;;;;;;;6.10;3.30;;;;;;;7.09;68.69;102203.50;5107925;28;20232;-62
2022/01/22 06:51:51;;;;;;;5.67;3.17;;;;;;;6.99;68.70;102195.22;5106427;28;20603;-62
2022/01/22 06:54:21;;;;;;;7.83;3.20;;;;;;;6.83;68.97;102194.34;5107055;28;20212;-60
2022/01/22 06:56:50;;;;;;;7.63;2.80;;;;;;;6.82;69.44;102192.66;5110266;28;20247;-62
2022/01/22 06:59:17;;;;;;;6.97;3.80;;;;;;;6.87;69.14;102195.88;5109990;28;20656;-61
2022/01/22 07:01:48;;;;;;;7.53;3.60;;;;;;;6.79;69.29;102214.75;5105745;28;20243;-62
2022/01/22 07:04:17;;;;;;;7.17;3.10;;;;;;;7.05;68.58;102204.59;5105107;28;20568;-61
2022/01/22 07:06:45;;;;;;;9.30;3.23;;;;;;;7.03;68.60;102206.47;5106015;28;20207;-61
2022/01/22 07:09:13;;;;;;;9.17;3.43;;;;;;;6.90;69.09;102205.41;5111132;28;20228;-61
2022/01/22 07:11:41;;;;;;;7.70;3.03;;;;;;;6.84;69.31;102217.16;5109265;28;20214;-62
2022/01/22 07:14:12;;;;;;;6.63;2.87;;;;;;;6.75;69.48;102213.22;5111013;28;20692;-61
2022/01/22 07:16:40;;;;;;;7.10;3.20;;;;;;;6.85;69.35;102207.47;5112980;28;20214;-61
2022/01/22 07:19:08;;;;;;;7.43;3.53;;;;;;;6.89;69.17;102211.63;5108030;28;20214;-62
2022/01/22 07:21:37;;;;;;;10.57;4.47;;;;;;;6.95;69.25;102220.06;5106327;28;20311;-61
2022/01/22 07:26:50;;;;;;;17.00;8.53;;;;;;;6.92;69.04;102232.56;5095961;28;20256;-61
2022/01/22 07:29:19;;;;;;;7.10;4.17;;;;;;;6.60;70.60;102231.63;5110435;28;20231;-61
2022/01/22 07:31:46;;;;;;;5.83;3.37;;;;;;;6.75;70.11;102233.47;5110979;28;20207;-61
2022/01/22 07:34:14;;;;;;;6.40;3.60;;;;;;;6.90;69.57;102240.56;5108126;27;20586;-64
2022/01/22 07:36:42;;;;;;;6.70;3.60;;;;;;;6.59;70.45;102243.13;5111646;28;20215;-62
2022/01/22 07:39:10;;;;;;;7.27;3.63;;;;;;;6.74;70.27;102250.22;5110079;28;20307;-62
2022/01/22 07:41:38;;;;;;;9.00;4.10;;;;;;;6.71;70.51;102243.31;5114299;27;20204;-61
2022/01/22 07:44:05;;;;;;;8.20;3.70;;;;;;;6.71;70.24;102253.00;5108706;28;20295;-62
2022/01/22 07:46:34;;;;;;;6.17;3.50;;;;;;;6.69;70.44;102250.44;5101265;28;20236;-63
2022/01/22 07:49:05;;;;;;;5.80;3.57;;;;;;;6.75;70.23;102238.75;5107891;28;20211;-63
2022/01/22 07:51:33;;;;;;;7.97;3.23;;;;;;;6.76;70.35;102243.94;5110543;28;20223;-61
2022/01/22 07:54:01;;;;;;;9.73;3.57;;;;;;;6.74;70.13;102248.44;5106111;28;20239;-60
2022/01/22 07:56:28;;;;;;;9.47;3.30;;;;;;;6.98;69.49;102241.00;5108649;28;20290;-61
2022/01/22 07:58:58;;;;;;;6.40;3.30;;;;;;;6.97;69.56;102244.56;5100185;28;20220;-61
2022/01/22 08:01:26;;;;;;;8.73;3.70;;;;;;;7.11;69.19;102242.06;5106108;28;20220;-60
2022/01/22 08:03:55;;;;;;;5.90;3.30;;;;;;;7.18;68.67;102243.44;5111785;28;20203;-61
2022/01/22 08:06:23;;;;;;;4.17;2.53;;;;;;;7.08;68.91;102230.81;5112326;28;20246;-70
2022/01/22 08:08:51;;;;;;;6.23;2.70;;;;;;;7.29;68.64;102236.72;5110627;28;20250;-64
2022/01/22 08:11:18;;;;;;;4.70;3.00;;;;;;;7.36;68.07;102233.66;5108577;27;20786;-64
2022/01/22 08:13:46;;;;;;;8.03;3.30;;;;;;;7.40;67.98;102242.22;5110032;28;20219;-64
2022/01/22 08:16:14;;;;;;;7.37;3.30;;;;;;;7.38;68.11;102250.25;5110363;28;20294;-65
2022/01/22 08:18:42;;;;;;;6.63;3.30;;;;;;;7.45;67.90;102245.50;5113369;28;20212;-64
2022/01/22 08:21:11;;;;;;;9.03;3.20;;;;;;;7.52;67.88;102258.25;5109246;28;20211;-64
2022/01/22 08:23:38;;;;;;;5.67;3.03;;;;;;;7.48;68.03;102261.13;5109206;28;20570;-64
2022/01/22 08:26:09;;;;;;;6.33;3.03;;;;;;;7.46;67.76;102241.91;5110621;28;20294;-64
2022/01/22 08:31:26;;;;;;;9.67;3.20;;;;;;;7.71;67.46;102242.25;5110500;27;20870;-64
2022/01/22 08:36:43;;;;;;;4.53;2.77;;;;;;;7.71;67.48;102241.38;5110752;27;20834;-63
2022/01/22 08:39:11;;;;;;;4.93;2.33;;;;;;;7.71;67.73;102242.25;5110461;28;20208;-63
2022/01/22 08:41:39;;;;;;;6.83;2.83;;;;;;;7.56;68.04;102243.09;5111028;28;20215;-63
2022/01/22 08:44:06;;;;;;;4.20;2.50;;;;;;;7.79;67.56;102240.00;5112135;28;20205;-63
2022/01/22 08:46:35;;;;;;;4.83;2.60;;;;;;;7.83;67.43;102241.53;5113087;28;20230;-64
2022/01/22 08:49:04;;;;;;;4.67;2.87;;;;;;;7.87;67.54;102242.22;5110286;28;20262;-64
2022/01/22 08:51:33;;;;;;;4.87;2.77;;;;;;;7.75;67.89;102254.31;5109687;28;20777;-63
2022/01/22 08:54:02;;;;;;;3.47;2.30;;;;;;;7.78;67.89;102254.16;5107792;28;20253;-64
2022/01/22 08:56:31;;;;;;;5.13;3.07;;;;;;;7.63;68.68;102251.53;5110456;28;20304;-64
2022/01/22 08:58:59;;;;;;;3.70;2.33;;;;;;;7.62;68.66;102248.03;5109535;28;20248;-64
2022/01/22 09:01:27;;;;;;;4.77;2.50;;;;;;;7.60;70.41;102260.47;5108409;28;20634;-61
2022/01/22 09:03:56;;;;;;;6.20;3.10;;;;;;;7.52;71.35;102262.69;5102765;27;20583;-60
2022/01/22 09:06:23;;;;;;;4.87;2.87;;;;;;;7.77;69.33;102268.28;5109750;27;20213;-63
2022/01/22 09:08:53;;;;;;;5.03;2.67;;;;;;;7.76;69.15;102265.72;5122867;27;20313;-64
2022/01/22 09:11:22;;;;;;;5.03;2.90;;;;;;;7.78;68.91;102269.16;5111098;28;20233;-64
2022/01/22 09:13:50;;;;;;;5.70;3.47;;;;;;;7.51;70.23;102276.81;5109835;28;20300;-64
2022/01/22 09:16:18;;;;;;;6.80;2.83;;;;;;;7.71;69.38;102286.28;5106576;28;20670;-63
2022/01/22 09:18:46;;;;;;;7.03;3.23;;;;;;;7.60;69.91;102281.59;5109105;28;20311;-64
2022/01/22 09:21:13;;;;;;;7.07;3.40;;;;;;;7.71;69.45;102288.91;5109310;28;20294;-64
2022/01/22 09:23:41;;;;;;;6.83;3.40;;;;;;;7.83;69.03;102290.84;5109141;28;20201;-65
2022/01/22 09:26:09;;;;;;;5.50;3.10;;;;;;;7.79;69.54;102307.84;5108568;28;20237;-65
2022/01/22 09:28:38;;;;;;;4.60;2.50;;;;;;;7.83;69.38;102299.63;5105140;28;20665;-65
2022/01/22 09:31:06;;;;;;;5.00;2.70;;;;;;;7.78;69.73;102301.69;5107279;28;20253;-65
2022/01/22 09:33:35;;;;;;;4.20;2.53;;;;;;;7.70;69.97;102301.28;5115556;27;20217;-65
2022/01/22 09:36:08;;;;;;;4.93;2.47;;;;;;;7.61;70.24;102299.16;5112261;28;20247;-64
2022/01/22 09:38:36;;;;;;;6.73;2.70;;;;;;;7.70;70.08;102300.41;5107985;28;20220;-65
2022/01/22 09:41:05;;;;;;;5.37;2.93;;;;;;;7.80;69.84;102305.09;5108397;28;20233;-65
2022/01/22 09:43:33;;;;;;;9.37;3.50;;;;;;;7.96;69.30;102301.59;5105881;28;20242;-65
2022/01/22 09:46:02;;;;;;;5.43;3.07;;;;;;;8.02;69.39;102298.59;5105584;28;20221;-64
2022/01/22 09:48:30;;;;;;;10.37;2.80;;;;;;;7.87;69.74;102300.31;5110042;28;20205;-63
2022/01/22 09:50:58;;;;;;;6.90;3.40;;;;;;;7.85;69.70;102303.06;5102348;28;20225;-64
2022/01/22 09:53:25;;;;;;;7.03;3.37;;;;;;;7.51;70.72;102305.84;5103978;28;20241;-64
2022/01/22 09:55:53;;;;;;;6.23;3.67;;;;;;;7.67;70.78;102306.72;5106604;28;20304;-64
2022/01/22 09:58:21;;;;;;;7.87;3.37;;;;;;;7.88;69.86;102318.75;5109942;28;20224;-64
2022/01/22 10:00:48;;;;;;;9.27;3.50;;;;;;;8.03;69.51;102316.16;5108569;27;20205;-64
2022/01/22 10:03:20;;;;;;;5.60;3.27;;;;;;;8.02;69.34;102312.66;5108641;27;20801;-64
2022/01/22 10:05:49;;;;;;;4.73;2.67;;;;;;;7.87;69.94;102322.31;5106646;28;20213;-65
2022/01/22 10:08:27;;;;;;;5.93;3.10;;;;;;;7.68;70.73;102315.50;5111125;28;20297;-64
2022/01/22 10:10:57;;;;;;;5.53;3.00;;;;;;;7.81;70.33;102312.09;5110116;28;20221;-64
2022/01/22 10:13:47;;;;;;;5.80;3.43;;;;;;;7.86;70.65;102311.81;5108043;28;20300;-65
2022/01/22 10:16:20;;;;;;;6.53;3.60;;;;;;;8.12;69.84;102305.06;5103346;28;20215;-65
2022/01/22 10:19:12;;;;;;;6.67;3.43;;;;;;;8.25;69.27;102298.16;5107190;28;20299;-65
2022/01/22 10:21:42;;;;;;;6.13;3.70;;;;;;;8.18;69.48;102302.09;5105271;28;20320;-64
2022/01/22 10:24:26;;;;;;;5.40;3.20;;;;;;;8.18;69.62;102300.28;5107022;28;20933;-65
2022/01/22 10:27:18;;;;;;;8.47;3.57;;;;;;;8.12;70.08;102305.06;5102672;28;20322;-65
2022/01/22 10:29:49;;;;;;;7.60;3.47;;;;;;;8.37;69.02;102299.25;5108496;28;20277;-64
2022/01/22 10:32:18;;;;;;;7.67;3.00;;;;;;;8.24;69.56;102294.66;5111731;28;20309;-64
2022/01/22 10:34:48;;;;;;;5.50;3.27;;;;;;;8.23;69.54;102292.94;5106919;28;20590;-63
2022/01/22 10:37:28;;;;;;;6.20;3.37;;;;;;;7.90;70.72;102295.75;5108489;28;20217;-64
2022/01/22 10:40:17;;;;;;;6.47;2.67;;;;;;;8.15;70.38;102295.19;5105515;28;20309;-64
2022/01/22 10:42:45;;;;;;;5.17;2.80;;;;;;;8.20;70.11;102294.91;5100296;28;20314;-64
2022/01/22 10:45:19;;;;;;;5.07;2.83;;;;;;;8.10;70.59;102291.94;5104275;28;20300;-64
2022/01/22 10:47:47;;;;;;;4.47;2.73;;;;;;;8.44;69.33;102295.31;5110012;28;20334;-65
2022/01/22 10:50:21;;;;;;;9.20;3.03;;;;;;;8.43;69.30;102289.19;5099245;28;20669;-66
2022/01/22 10:52:50;;;;;;;6.87;3.40;;;;;;;8.50;69.01;102289.66;5107589;28;20324;-64
2022/01/22 10:55:19;;;;;;;5.30;3.27;;;;;;;8.52;68.90;102283.34;5108134;28;20263;-65
2022/01/22 10:58:13;;;;;;;5.17;2.90;;;;;;;8.41;69.47;102288.41;5107085;28;20671;-65
2022/01/22 11:00:41;;;;;;;7.20;3.10;;;;;;;8.47;69.55;102287.19;5100525;28;20211;-64
2022/01/22 11:03:21;;;;;;;6.00;3.33;;;;;;;8.27;69.99;102288.31;5109013;28;20214;-64
2022/01/22 11:05:51;;;;;;;4.60;2.73;;;;;;;8.48;69.05;102292.38;5110189;28;20213;-65
2022/01/22 11:08:19;;;;;;;5.67;3.10;;;;;;;8.49;68.91;102296.75;5107040;28;20218;-65
2022/01/22 11:10:47;;;;;;;3.77;2.40;;;;;;;8.13;70.14;102293.56;5107115;28;20934;-64
2022/01/22 11:13:14;;;;;;;4.43;2.47;;;;;;;8.40;69.35;102299.06;5097557;28;20226;-64
2022/01/22 11:15:44;;;;;;;5.63;2.93;;;;;;;8.43;69.18;102294.47;5108627;28;20225;-65
2022/01/22 11:18:13;;;;;;;6.93;3.17;;;;;;;8.51;68.90;102292.22;5092869;28;20210;-64
2022/01/22 11:20:41;;;;;;;7.80;3.23;;;;;;;8.42;68.94;102299.84;5121684;28;20283;-64
2022/01/22 11:23:10;;;;;;;5.17;2.70;;;;;;;8.39;69.02;102308.78;5106370;28;20297;-64
2022/01/22 11:25:38;;;;;;;4.53;2.70;;;;;;;8.34;69.57;102318.81;5104184;28;20282;-64
2022/01/22 11:28:08;;;;;;;4.60;2.97;;;;;;;8.53;68.57;102311.47;5113906;28;20637;-65
2022/01/22 11:30:46;;;;;;;5.97;2.60;;;;;;;8.40;69.19;102320.22;5091819;28;20237;-64
2022/01/22 11:33:17;;;;;;;4.70;2.77;;;;;;;8.50;68.80;102322.25;5110602;28;20275;-64
2022/01/22 11:35:54;;;;;;;4.73;2.70;;;;;;;8.37;69.27;102320.38;5100438;28;20279;-65
2022/01/22 11:38:29;;;;;;;7.80;2.73;;;;;;;8.49;68.85;102319.69;5108105;28;20231;-65
2022/01/22 11:41:09;;;;;;;5.97;2.87;;;;;;;8.56;68.81;102310.44;5116448;28;20225;-63
2022/01/22 11:44:00;;;;;;;5.37;3.20;;;;;;;8.47;68.89;102311.84;5109702;28;20320;-64
2022/01/22 11:46:32;;;;;;;4.50;2.80;;;;;;;8.61;69.01;102324.25;5107734;28;20202;-64
2022/01/22 11:49:18;;;;;;;7.33;3.00;;;;;;;8.59;68.70;102327.00;5100074;28;20198;-66
2022/01/22 11:51:48;;;;;;;6.50;3.40;;;;;;;8.61;68.71;102311.91;5110529;28;20317;-64
2022/01/22 11:54:22;;;;;;;7.47;3.90;;;;;;;8.50;69.31;102314.31;5106042;28;20216;-65
2022/01/22 11:56:53;;;;;;;6.73;3.90;;;;;;;8.66;68.54;102315.09;5110474;28;20575;-65
2022/01/22 11:59:32;;;;;;;4.67;3.03;;;;;;;8.76;68.09;102317.19;5111544;28;20244;-64
2022/01/22 12:02:05;;;;;;;7.23;3.07;;;;;;;8.57;68.47;102317.44;5107052;28;20214;-65
2022/01/22 12:04:49;;;;;;;6.00;3.43;;;;;;;8.74;68.11;102316.44;5114266;28;20213;-64
2022/01/22 12:07:19;;;;;;;5.93;3.67;;;;;;;8.73;68.10;102312.09;5106821;28;20202;-64
2022/01/22 12:10:34;;;;;;;6.20;3.07;;;;;;;8.72;68.17;102313.88;5109254;28;20222;-64
2022/01/22 12:16:11;;;;;;;4.67;2.97;;;;;;;8.64;68.35;102309.03;5106387;28;20301;-64
2022/01/22 12:18:50;;;;;;;3.73;2.43;;;;;;;8.61;68.47;102301.31;5110378;27;20203;-65
2022/01/22 12:21:35;;;;;;;4.70;2.63;;;;;;;8.80;67.65;102302.84;5114499;27;20578;-63
2022/01/22 12:24:09;;;;;;;5.03;2.97;;;;;;;8.65;67.62;102301.97;5109666;28;20206;-64
2022/01/22 12:26:51;;;;;;;4.03;2.17;;;;;;;8.65;67.95;102307.25;5108019;28;20248;-61
2022/01/22 12:29:59;;;;;;;5.27;3.03;;;;;;;8.66;67.72;102304.53;5109130;27;20606;-62
2022/01/22 12:32:32;;;;;;;4.30;2.77;;;;;;;8.49;68.20;102304.69;5108065;28;20258;-63
2022/01/22 12:35:13;;;;;;;7.20;2.60;;;;;;;8.49;68.38;102304.69;5109623;27;20218;-63
2022/01/22 12:37:47;;;;;;;6.40;3.00;;;;;;;8.72;67.69;102311.22;5108609;28;20309;-63
2022/01/22 12:40:28;;;;;;;4.97;2.50;;;;;;;8.40;68.28;102304.34;5105937;28;20296;-63
2022/01/22 12:43:09;;;;;;;5.10;2.90;;;;;;;8.56;68.19;102305.16;5105546;28;20233;-63
2022/01/22 12:45:41;;;;;;;6.77;2.27;;;;;;;8.61;67.91;102303.09;5108067;28;20209;-64
2022/01/22 12:48:08;;;;;;;5.97;2.30;;;;;;;8.60;67.71;102302.25;5110331;28;20345;-63
2022/01/22 12:50:37;;;;;;;4.30;2.30;;;;;;;8.44;67.86;102298.81;5100663;27;20213;-64
2022/01/22 12:53:11;;;;;;;4.40;2.50;;;;;;;8.54;67.76;102302.59;5100904;28;20272;-64
2022/01/22 12:58:38;;;;;;;4.70;2.90;;;;;;;8.69;67.30;102300.84;5067974;28;20219;-64
2022/01/22 13:01:12;;;;;;;4.37;2.50;;;;;;;8.60;67.53;102296.13;5105636;28;20210;-64